الصفحة الرئيسية
METAR-TAF:

METAR-TAF

مطار :

مطار ليوبولد سيدار سنغور الدولي

دكار, السنغال

دائرة عرض: 14-44N, خط طول: 017-30W, ارتفاع: 27 متر

مراقبة الطقس الحالي

تاريخ ووقت الإصدار 34 دقيقة قبل الساعة 00:00UTC
ريح 10 عقدة من الشمال
درجة الحرارة 27°درجة مئوية
الرطوبة 94%
ضغط 1015 hPa
الرؤية: 8000 متر
غيوم قليلة على ارتفاع 1300 قدم

METAR: GOOY 170000Z 36010KT 8000 FEW013 27/26 Q1015

زمن: 00:34 (00:34 UTC)

توقعات

تاريخ ووقت الإصدار 1ساعة و 4 دقيقة قبل الساعة 23:30UTC
التوقعات صالحة من17 الساعة 00 UTC إلى 18 الساعة 06 UTC
ريح 10 عقدة من الشمال/الشمال الشرقي
الرؤية 10 كم أو أكثر
غيوم متفرقة على ارتفاع 1300 قدم

TAF: GOOY 162330Z 1700/1806 02010KT 9999 SCT013

أرصاد الطقس والتوقعات من أكثر من 4000 مطار (تقارير الطقس للمطار METAR والتنبؤ بالطقس بالمطارTAF).

المحطات المتاحة هي النقط الصفراء والحمراء على الخريطة.

حرك المؤشر فوق النقطة لمعرفة اسم المحطة.

ثم انقر لمعرفة أرصاد وتوقعات الطقس.

لتغيير الخارطة: اضغط على الأزرار الخضراء مع رمز الصليب الأسود للتكبير. على الزر الأخضر مع شرطة للتصغير، أو على الأسهم الخضراء للخرائط المجاورة.


METAR-TAF: